sensor_id;sensor_type;location;lat;lon;timestamp;P1;durP1;ratioP1;P2;durP2;ratioP2
77748;SDS011;66938;52.084;5.228;2023-05-15T00:01:18;32.0;;;29.2;;
77748;SDS011;66938;52.084;5.228;2023-05-15T00:02:54;32.3;;;29.3;;
77748;SDS011;66938;52.084;5.228;2023-05-15T00:06:06;33.71;;;30.5;;
77748;SDS011;66938;52.084;5.228;2023-05-15T00:07:42;33.6;;;30.4;;
77748;SDS011;66938;52.084;5.228;2023-05-15T00:09:18;32.1;;;29.1;;
77748;SDS011;66938;52.084;5.228;2023-05-15T00:12:31;33.0;;;29.8;;
77748;SDS011;66938;52.084;5.228;2023-05-15T00:14:07;33.5;;;30.2;;
77748;SDS011;66938;52.084;5.228;2023-05-15T00:15:43;33.3;;;30.1;;
77748;SDS011;66938;52.084;5.228;2023-05-15T00:17:19;33.0;;;29.9;;
77748;SDS011;66938;52.084;5.228;2023-05-15T00:20:31;33.3;;;30.1;;
77748;SDS011;66938;52.084;5.228;2023-05-15T00:22:07;32.71;;;29.7;;
77748;SDS011;66938;52.084;5.228;2023-05-15T00:23:43;33.9;;;30.8;;
77748;SDS011;66938;52.084;5.228;2023-05-15T00:26:56;33.8;;;30.7;;
77748;SDS011;66938;52.084;5.228;2023-05-15T00:28:35;34.9;;;31.6;;
77748;SDS011;66938;52.084;5.228;2023-05-15T00:30:12;34.5;;;31.3;;
77748;SDS011;66938;52.084;5.228;2023-05-15T00:33:24;34.21;;;30.9;;
77748;SDS011;66938;52.084;5.228;2023-05-15T00:35:00;34.81;;;31.7;;
77748;SDS011;66938;52.084;5.228;2023-05-15T00:36:37;34.0;;;30.8;;
77748;SDS011;66938;52.084;5.228;2023-05-15T00:38:13;33.8;;;30.7;;
77748;SDS011;66938;52.084;5.228;2023-05-15T00:41:25;35.71;;;32.3;;
77748;SDS011;66938;52.084;5.228;2023-05-15T00:43:03;35.5;;;32.0;;
77748;SDS011;66938;52.084;5.228;2023-05-15T00:44:43;36.1;;;32.71;;
77748;SDS011;66938;52.084;5.228;2023-05-15T00:47:58;36.21;;;32.71;;
77748;SDS011;66938;52.084;5.228;2023-05-15T00:49:36;35.71;;;32.3;;
77748;SDS011;66938;52.084;5.228;2023-05-15T00:51:13;35.6;;;32.21;;
77748;SDS011;66938;52.084;5.228;2023-05-15T00:52:49;37.71;;;34.0;;
77748;SDS011;66938;52.084;5.228;2023-05-15T00:56:01;37.6;;;34.0;;
77748;SDS011;66938;52.084;5.228;2023-05-15T00:57:41;38.0;;;34.5;;
77748;SDS011;66938;52.084;5.228;2023-05-15T00:59:18;37.9;;;34.21;;
77748;SDS011;66938;52.084;5.228;2023-05-15T01:02:33;41.1;;;37.21;;
77748;SDS011;66938;52.084;5.228;2023-05-15T01:04:09;41.2;;;37.31;;
77748;SDS011;66938;52.084;5.228;2023-05-15T01:05:45;38.9;;;35.21;;
77748;SDS011;66938;52.084;5.228;2023-05-15T01:08:58;41.5;;;37.31;;
77748;SDS011;66938;52.084;5.228;2023-05-15T01:10:36;42.2;;;38.31;;
77748;SDS011;66938;52.084;5.228;2023-05-15T01:12:13;41.8;;;37.6;;
77748;SDS011;66938;52.084;5.228;2023-05-15T01:13:50;40.21;;;36.5;;
77748;SDS011;66938;52.084;5.228;2023-05-15T01:17:02;44.4;;;40.4;;
77748;SDS011;66938;52.084;5.228;2023-05-15T01:18:38;43.3;;;39.21;;
77748;SDS011;66938;52.084;5.228;2023-05-15T01:20:14;41.7;;;37.71;;
77748;SDS011;66938;52.084;5.228;2023-05-15T01:24:50;41.2;;;37.0;;
77748;SDS011;66938;52.084;5.228;2023-05-15T01:28:23;46.7;;;42.2;;
77748;SDS011;66938;52.084;5.228;2023-05-15T01:31:50;45.3;;;40.9;;
77748;SDS011;66938;52.084;5.228;2023-05-15T01:33:37;47.3;;;42.6;;
77748;SDS011;66938;52.084;5.228;2023-05-15T01:35:19;46.0;;;41.7;;
77748;SDS011;66938;52.084;5.228;2023-05-15T01:37:02;52.1;;;46.7;;
77748;SDS011;66938;52.084;5.228;2023-05-15T01:40:23;51.1;;;46.1;;
77748;SDS011;66938;52.084;5.228;2023-05-15T01:42:03;50.0;;;45.3;;
77748;SDS011;66938;52.084;5.228;2023-05-15T01:43:44;48.9;;;44.2;;
77748;SDS011;66938;52.084;5.228;2023-05-15T01:45:23;48.8;;;44.1;;
77748;SDS011;66938;52.084;5.228;2023-05-15T01:48:44;51.0;;;46.2;;
77748;SDS011;66938;52.084;5.228;2023-05-15T01:50:23;49.8;;;45.0;;
77748;SDS011;66938;52.084;5.228;2023-05-15T01:52:04;50.9;;;45.8;;
77748;SDS011;66938;52.084;5.228;2023-05-15T01:53:45;50.8;;;45.9;;
77748;SDS011;66938;52.084;5.228;2023-05-15T01:57:00;53.4;;;48.2;;
77748;SDS011;66938;52.084;5.228;2023-05-15T01:58:37;54.2;;;48.7;;
77748;SDS011;66938;52.084;5.228;2023-05-15T02:00:15;52.7;;;47.8;;
77748;SDS011;66938;52.084;5.228;2023-05-15T02:01:54;56.5;;;50.9;;
77748;SDS011;66938;52.084;5.228;2023-05-15T02:05:09;57.0;;;51.3;;
77748;SDS011;66938;52.084;5.228;2023-05-15T02:06:47;57.0;;;51.3;;
77748;SDS011;66938;52.084;5.228;2023-05-15T02:08:25;59.2;;;53.1;;
77748;SDS011;66938;52.084;5.228;2023-05-15T02:11:40;58.4;;;52.6;;
77748;SDS011;66938;52.084;5.228;2023-05-15T02:13:16;58.0;;;52.1;;
77748;SDS011;66938;52.084;5.228;2023-05-15T02:14:54;56.3;;;50.8;;
77748;SDS011;66938;52.084;5.228;2023-05-15T02:16:33;57.4;;;51.8;;
77748;SDS011;66938;52.084;5.228;2023-05-15T02:19:45;53.7;;;48.5;;
77748;SDS011;66938;52.084;5.228;2023-05-15T02:21:21;55.9;;;50.4;;
77748;SDS011;66938;52.084;5.228;2023-05-15T02:22:57;58.7;;;52.7;;
77748;SDS011;66938;52.084;5.228;2023-05-15T02:26:13;56.1;;;50.7;;
77748;SDS011;66938;52.084;5.228;2023-05-15T02:28:12;55.7;;;50.2;;
77748;SDS011;66938;52.084;5.228;2023-05-15T02:30:06;55.2;;;49.9;;
77748;SDS011;66938;52.084;5.228;2023-05-15T02:31:56;57.0;;;51.3;;
77748;SDS011;66938;52.084;5.228;2023-05-15T02:33:41;55.4;;;49.8;;
77748;SDS011;66938;52.084;5.228;2023-05-15T02:35:25;55.5;;;50.0;;
77748;SDS011;66938;52.084;5.228;2023-05-15T02:38:56;55.0;;;49.6;;
77748;SDS011;66938;52.084;5.228;2023-05-15T02:40:34;56.1;;;50.6;;
77748;SDS011;66938;52.084;5.228;2023-05-15T02:42:12;54.7;;;49.4;;
77748;SDS011;66938;52.084;5.228;2023-05-15T02:43:49;55.6;;;50.1;;
77748;SDS011;66938;52.084;5.228;2023-05-15T02:47:04;56.3;;;50.8;;
77748;SDS011;66938;52.084;5.228;2023-05-15T02:48:42;55.2;;;49.8;;
77748;SDS011;66938;52.084;5.228;2023-05-15T02:50:18;56.1;;;50.5;;
77748;SDS011;66938;52.084;5.228;2023-05-15T02:53:32;55.9;;;50.3;;
77748;SDS011;66938;52.084;5.228;2023-05-15T02:55:13;56.6;;;51.0;;
77748;SDS011;66938;52.084;5.228;2023-05-15T02:56:49;56.7;;;51.2;;
77748;SDS011;66938;52.084;5.228;2023-05-15T02:58:25;57.1;;;51.3;;
77748;SDS011;66938;52.084;5.228;2023-05-15T03:01:39;56.9;;;51.3;;
77748;SDS011;66938;52.084;5.228;2023-05-15T03:03:15;55.8;;;50.5;;
77748;SDS011;66938;52.084;5.228;2023-05-15T03:04:52;57.2;;;51.4;;
77748;SDS011;66938;52.084;5.228;2023-05-15T03:08:04;56.3;;;50.8;;
77748;SDS011;66938;52.084;5.228;2023-05-15T03:09:40;57.7;;;51.8;;
77748;SDS011;66938;52.084;5.228;2023-05-15T03:11:16;56.8;;;51.2;;
77748;SDS011;66938;52.084;5.228;2023-05-15T03:14:30;57.8;;;52.1;;
77748;SDS011;66938;52.084;5.228;2023-05-15T03:16:07;56.9;;;51.2;;
77748;SDS011;66938;52.084;5.228;2023-05-15T03:17:43;58.6;;;52.6;;
77748;SDS011;66938;52.084;5.228;2023-05-15T03:19:19;60.8;;;54.4;;
77748;SDS011;66938;52.084;5.228;2023-05-15T03:22:31;62.4;;;55.7;;
77748;SDS011;66938;52.084;5.228;2023-05-15T03:24:07;62.3;;;55.4;;
77748;SDS011;66938;52.084;5.228;2023-05-15T03:25:43;64.7;;;56.0;;
77748;SDS011;66938;52.084;5.228;2023-05-15T03:28:56;63.4;;;56.4;;
77748;SDS011;66938;52.084;5.228;2023-05-15T03:30:33;62.6;;;55.8;;
77748;SDS011;66938;52.084;5.228;2023-05-15T03:32:09;63.0;;;56.1;;
77748;SDS011;66938;52.084;5.228;2023-05-15T03:35:21;73.11;;;57.9;;
77748;SDS011;66938;52.084;5.228;2023-05-15T03:36:57;64.5;;;55.2;;
77748;SDS011;66938;52.084;5.228;2023-05-15T03:38:33;73.41;;;55.2;;
77748;SDS011;66938;52.084;5.228;2023-05-15T03:40:10;67.8;;;55.7;;
77748;SDS011;66938;52.084;5.228;2023-05-15T03:43:23;75.0;;;57.1;;
77748;SDS011;66938;52.084;5.228;2023-05-15T03:44:59;67.8;;;55.0;;
77748;SDS011;66938;52.084;5.228;2023-05-15T03:46:35;59.8;;;51.9;;
77748;SDS011;66938;52.084;5.228;2023-05-15T03:49:47;60.0;;;52.5;;
77748;SDS011;66938;52.084;5.228;2023-05-15T03:51:24;64.8;;;53.5;;
77748;SDS011;66938;52.084;5.228;2023-05-15T03:53:00;59.0;;;51.5;;
77748;SDS011;66938;52.084;5.228;2023-05-15T03:57:48;62.5;;;54.4;;
77748;SDS011;66938;52.084;5.228;2023-05-15T03:59:24;58.6;;;52.1;;
77748;SDS011;66938;52.084;5.228;2023-05-15T04:02:37;65.8;;;55.6;;
77748;SDS011;66938;52.084;5.228;2023-05-15T04:04:13;66.2;;;57.3;;
77748;SDS011;66938;52.084;5.228;2023-05-15T04:05:49;65.6;;;56.1;;
77748;SDS011;66938;52.084;5.228;2023-05-15T04:07:25;61.9;;;53.9;;
77748;SDS011;66938;52.084;5.228;2023-05-15T04:10:37;63.9;;;56.1;;
77748;SDS011;66938;52.084;5.228;2023-05-15T04:12:13;59.9;;;53.3;;
77748;SDS011;66938;52.084;5.228;2023-05-15T04:13:49;59.6;;;53.3;;
77748;SDS011;66938;52.084;5.228;2023-05-15T04:17:02;58.6;;;51.0;;
77748;SDS011;66938;52.084;5.228;2023-05-15T04:18:38;56.1;;;50.3;;
77748;SDS011;66938;52.084;5.228;2023-05-15T04:20:15;58.8;;;53.0;;
77748;SDS011;66938;52.084;5.228;2023-05-15T04:23:29;58.5;;;52.6;;
77748;SDS011;66938;52.084;5.228;2023-05-15T04:25:06;55.9;;;50.4;;
77748;SDS011;66938;52.084;5.228;2023-05-15T04:26:43;56.9;;;51.1;;
77748;SDS011;66938;52.084;5.228;2023-05-15T04:28:19;55.2;;;49.6;;
77748;SDS011;66938;52.084;5.228;2023-05-15T04:31:31;57.4;;;51.9;;
77748;SDS011;66938;52.084;5.228;2023-05-15T04:33:09;57.4;;;51.8;;
77748;SDS011;66938;52.084;5.228;2023-05-15T04:40:15;61.5;;;55.3;;
77748;SDS011;66938;52.084;5.228;2023-05-15T04:41:51;61.8;;;55.7;;
77748;SDS011;66938;52.084;5.228;2023-05-15T04:43:27;62.4;;;56.2;;
77748;SDS011;66938;52.084;5.228;2023-05-15T04:45:03;61.2;;;55.1;;
77748;SDS011;66938;52.084;5.228;2023-05-15T04:48:17;57.3;;;51.7;;
77748;SDS011;66938;52.084;5.228;2023-05-15T04:49:53;56.4;;;50.8;;
77748;SDS011;66938;52.084;5.228;2023-05-15T04:51:29;51.8;;;47.0;;
77748;SDS011;66938;52.084;5.228;2023-05-15T04:54:42;52.1;;;47.3;;
77748;SDS011;66938;52.084;5.228;2023-05-15T04:56:18;49.6;;;45.0;;
77748;SDS011;66938;52.084;5.228;2023-05-15T04:57:54;48.4;;;43.9;;
77748;SDS011;66938;52.084;5.228;2023-05-15T05:01:06;45.7;;;41.5;;
77748;SDS011;66938;52.084;5.228;2023-05-15T05:02:42;45.2;;;41.1;;
77748;SDS011;66938;52.084;5.228;2023-05-15T05:04:18;44.8;;;40.81;;
77748;SDS011;66938;52.084;5.228;2023-05-15T05:05:54;43.0;;;39.0;;
77748;SDS011;66938;52.084;5.228;2023-05-15T05:09:07;39.21;;;35.81;;
77748;SDS011;66938;52.084;5.228;2023-05-15T05:10:43;38.9;;;35.6;;
77748;SDS011;66938;52.084;5.228;2023-05-15T05:12:19;38.81;;;35.4;;
77748;SDS011;66938;52.084;5.228;2023-05-15T05:15:31;40.81;;;37.21;;
77748;SDS011;66938;52.084;5.228;2023-05-15T05:17:07;41.0;;;37.5;;
77748;SDS011;66938;52.084;5.228;2023-05-15T05:18:45;41.2;;;37.71;;
77748;SDS011;66938;52.084;5.228;2023-05-15T05:21:57;40.81;;;37.21;;
77748;SDS011;66938;52.084;5.228;2023-05-15T05:23:33;41.2;;;37.6;;
77748;SDS011;66938;52.084;5.228;2023-05-15T05:25:09;41.6;;;38.0;;
77748;SDS011;66938;52.084;5.228;2023-05-15T05:28:23;40.9;;;37.4;;
77748;SDS011;66938;52.084;5.228;2023-05-15T05:29:59;41.6;;;38.0;;
77748;SDS011;66938;52.084;5.228;2023-05-15T05:31:35;40.9;;;37.4;;
77748;SDS011;66938;52.084;5.228;2023-05-15T05:33:11;40.4;;;37.0;;
77748;SDS011;66938;52.084;5.228;2023-05-15T05:36:23;44.0;;;40.21;;
77748;SDS011;66938;52.084;5.228;2023-05-15T05:37:59;43.1;;;39.6;;
77748;SDS011;66938;52.084;5.228;2023-05-15T05:39:36;42.5;;;39.1;;
77748;SDS011;66938;52.084;5.228;2023-05-15T05:42:47;42.8;;;39.31;;
77748;SDS011;66938;52.084;5.228;2023-05-15T05:44:23;39.4;;;36.1;;
77748;SDS011;66938;52.084;5.228;2023-05-15T05:46:00;39.4;;;36.21;;
77748;SDS011;66938;52.084;5.228;2023-05-15T05:49:13;37.71;;;34.6;;
77748;SDS011;66938;52.084;5.228;2023-05-15T05:50:49;39.0;;;35.81;;
77748;SDS011;66938;52.084;5.228;2023-05-15T05:52:25;35.9;;;32.71;;
77748;SDS011;66938;52.084;5.228;2023-05-15T05:54:01;36.9;;;33.8;;
77748;SDS011;66938;52.084;5.228;2023-05-15T05:57:13;33.4;;;30.7;;
77748;SDS011;66938;52.084;5.228;2023-05-15T05:58:49;32.1;;;29.4;;
77748;SDS011;66938;52.084;5.228;2023-05-15T06:00:25;31.0;;;28.5;;
77748;SDS011;66938;52.084;5.228;2023-05-15T06:03:40;31.7;;;29.1;;
77748;SDS011;66938;52.084;5.228;2023-05-15T06:05:17;31.4;;;28.8;;
77748;SDS011;66938;52.084;5.228;2023-05-15T06:06:52;32.6;;;29.8;;
77748;SDS011;66938;52.084;5.228;2023-05-15T06:10:05;32.8;;;30.1;;
77748;SDS011;66938;52.084;5.228;2023-05-15T06:11:41;32.8;;;30.1;;
77748;SDS011;66938;52.084;5.228;2023-05-15T06:13:17;31.5;;;29.0;;
77748;SDS011;66938;52.084;5.228;2023-05-15T06:16:29;32.6;;;29.9;;
77748;SDS011;66938;52.084;5.228;2023-05-15T06:18:05;32.5;;;29.9;;
77748;SDS011;66938;52.084;5.228;2023-05-15T06:19:41;33.6;;;30.8;;
77748;SDS011;66938;52.084;5.228;2023-05-15T06:21:17;33.5;;;30.6;;
77748;SDS011;66938;52.084;5.228;2023-05-15T06:24:29;31.0;;;28.3;;
77748;SDS011;66938;52.084;5.228;2023-05-15T06:26:05;30.9;;;28.3;;
77748;SDS011;66938;52.084;5.228;2023-05-15T06:27:41;32.1;;;29.2;;
77748;SDS011;66938;52.084;5.228;2023-05-15T06:30:54;32.8;;;29.9;;
77748;SDS011;66938;52.084;5.228;2023-05-15T06:34:06;33.21;;;30.4;;
77748;SDS011;66938;52.084;5.228;2023-05-15T06:37:19;32.4;;;29.9;;
77748;SDS011;66938;52.084;5.228;2023-05-15T06:38:55;32.1;;;29.5;;
77748;SDS011;66938;52.084;5.228;2023-05-15T06:40:30;31.8;;;29.0;;
77748;SDS011;66938;52.084;5.228;2023-05-15T06:43:43;32.21;;;29.5;;
77748;SDS011;66938;52.084;5.228;2023-05-15T06:45:19;31.8;;;29.2;;
77748;SDS011;66938;52.084;5.228;2023-05-15T06:48:33;32.6;;;29.9;;
77748;SDS011;66938;52.084;5.228;2023-05-15T06:51:45;30.8;;;28.3;;
77748;SDS011;66938;52.084;5.228;2023-05-15T06:53:21;29.1;;;26.8;;
77748;SDS011;66938;52.084;5.228;2023-05-15T06:54:58;29.6;;;27.1;;
77748;SDS011;66938;52.084;5.228;2023-05-15T06:58:10;28.2;;;25.9;;
77748;SDS011;66938;52.084;5.228;2023-05-15T06:59:46;29.5;;;27.1;;
77748;SDS011;66938;52.084;5.228;2023-05-15T07:01:23;27.7;;;25.4;;
77748;SDS011;66938;52.084;5.228;2023-05-15T07:06:11;27.8;;;25.6;;
77748;SDS011;66938;52.084;5.228;2023-05-15T07:07:47;28.3;;;26.0;;
77748;SDS011;66938;52.084;5.228;2023-05-15T07:09:23;28.0;;;25.7;;
77748;SDS011;66938;52.084;5.228;2023-05-15T07:14:12;27.2;;;24.9;;
77748;SDS011;66938;52.084;5.228;2023-05-15T07:15:48;26.7;;;24.6;;
77748;SDS011;66938;52.084;5.228;2023-05-15T07:19:01;27.4;;;25.3;;
77748;SDS011;66938;52.084;5.228;2023-05-15T07:20:37;26.0;;;24.0;;
77748;SDS011;66938;52.084;5.228;2023-05-15T07:22:14;25.9;;;23.8;;
77748;SDS011;66938;52.084;5.228;2023-05-15T07:25:28;28.6;;;26.3;;
77748;SDS011;66938;52.084;5.228;2023-05-15T07:27:04;27.6;;;25.4;;
77748;SDS011;66938;52.084;5.228;2023-05-15T07:28:40;28.3;;;26.1;;
77748;SDS011;66938;52.084;5.228;2023-05-15T07:30:17;26.3;;;24.2;;
77748;SDS011;66938;52.084;5.228;2023-05-15T07:33:29;25.6;;;23.6;;
77748;SDS011;66938;52.084;5.228;2023-05-15T07:35:06;25.4;;;23.2;;
77748;SDS011;66938;52.084;5.228;2023-05-15T07:36:42;25.9;;;23.8;;
77748;SDS011;66938;52.084;5.228;2023-05-15T07:39:54;23.9;;;22.0;;
77748;SDS011;66938;52.084;5.228;2023-05-15T07:41:30;24.9;;;22.8;;
77748;SDS011;66938;52.084;5.228;2023-05-15T07:43:07;25.8;;;23.5;;
77748;SDS011;66938;52.084;5.228;2023-05-15T07:46:20;26.4;;;24.2;;
77748;SDS011;66938;52.084;5.228;2023-05-15T07:47:56;26.6;;;24.5;;
77748;SDS011;66938;52.084;5.228;2023-05-15T07:49:32;25.9;;;23.8;;
77748;SDS011;66938;52.084;5.228;2023-05-15T07:52:44;26.2;;;24.0;;
77748;SDS011;66938;52.084;5.228;2023-05-15T07:54:21;25.6;;;23.6;;
77748;SDS011;66938;52.084;5.228;2023-05-15T07:55:57;26.9;;;24.7;;
77748;SDS011;66938;52.084;5.228;2023-05-15T07:57:33;28.2;;;25.9;;
77748;SDS011;66938;52.084;5.228;2023-05-15T08:00:45;27.9;;;25.7;;
77748;SDS011;66938;52.084;5.228;2023-05-15T08:02:21;26.5;;;24.4;;
77748;SDS011;66938;52.084;5.228;2023-05-15T08:03:58;28.6;;;26.2;;
77748;SDS011;66938;52.084;5.228;2023-05-15T08:07:10;27.9;;;25.7;;
77748;SDS011;66938;52.084;5.228;2023-05-15T08:08:48;27.8;;;25.5;;
77748;SDS011;66938;52.084;5.228;2023-05-15T08:10:24;28.0;;;25.7;;
77748;SDS011;66938;52.084;5.228;2023-05-15T08:13:53;27.1;;;24.9;;
77748;SDS011;66938;52.084;5.228;2023-05-15T08:15:29;27.7;;;25.4;;
77748;SDS011;66938;52.084;5.228;2023-05-15T08:17:06;27.5;;;25.3;;
77748;SDS011;66938;52.084;5.228;2023-05-15T08:18:42;28.0;;;25.6;;
77748;SDS011;66938;52.084;5.228;2023-05-15T08:21:54;28.6;;;26.2;;
77748;SDS011;66938;52.084;5.228;2023-05-15T08:23:30;28.1;;;25.9;;
77748;SDS011;66938;52.084;5.228;2023-05-15T08:25:07;29.5;;;27.1;;
77748;SDS011;66938;52.084;5.228;2023-05-15T08:26:44;29.2;;;26.7;;
77748;SDS011;66938;52.084;5.228;2023-05-15T08:29:56;29.4;;;26.9;;
77748;SDS011;66938;52.084;5.228;2023-05-15T08:31:32;30.4;;;27.9;;
77748;SDS011;66938;52.084;5.228;2023-05-15T08:33:08;29.8;;;27.2;;
77748;SDS011;66938;52.084;5.228;2023-05-15T08:36:21;30.1;;;27.5;;
77748;SDS011;66938;52.084;5.228;2023-05-15T08:37:57;28.7;;;26.2;;
77748;SDS011;66938;52.084;5.228;2023-05-15T08:39:33;29.8;;;27.3;;
77748;SDS011;66938;52.084;5.228;2023-05-15T08:42:58;30.7;;;28.0;;
77748;SDS011;66938;52.084;5.228;2023-05-15T08:44:37;31.1;;;28.6;;
77748;SDS011;66938;52.084;5.228;2023-05-15T08:46:14;30.4;;;27.8;;
77748;SDS011;66938;52.084;5.228;2023-05-15T08:51:17;28.5;;;26.1;;
77748;SDS011;66938;52.084;5.228;2023-05-15T08:52:54;27.6;;;25.4;;
77748;SDS011;66938;52.084;5.228;2023-05-15T08:54:32;27.0;;;24.8;;
77748;SDS011;66938;52.084;5.228;2023-05-15T08:56:08;28.1;;;25.7;;
77748;SDS011;66938;52.084;5.228;2023-05-15T08:59:23;27.4;;;25.1;;
77748;SDS011;66938;52.084;5.228;2023-05-15T09:00:59;25.8;;;23.6;;
77748;SDS011;66938;52.084;5.228;2023-05-15T09:02:35;26.2;;;24.2;;
77748;SDS011;66938;52.084;5.228;2023-05-15T09:05:48;27.3;;;25.0;;
77748;SDS011;66938;52.084;5.228;2023-05-15T09:07:27;27.0;;;24.7;;
77748;SDS011;66938;52.084;5.228;2023-05-15T09:09:05;26.8;;;24.5;;
77748;SDS011;66938;52.084;5.228;2023-05-15T09:10:44;26.9;;;24.6;;
77748;SDS011;66938;52.084;5.228;2023-05-15T09:13:59;28.9;;;26.5;;
77748;SDS011;66938;52.084;5.228;2023-05-15T09:15:35;33.71;;;30.9;;
77748;SDS011;66938;52.084;5.228;2023-05-15T09:17:13;36.4;;;33.4;;
77748;SDS011;66938;52.084;5.228;2023-05-15T09:20:28;34.6;;;31.6;;
77748;SDS011;66938;52.084;5.228;2023-05-15T09:22:15;36.71;;;33.5;;
77748;SDS011;66938;52.084;5.228;2023-05-15T09:23:53;40.4;;;36.81;;
77748;SDS011;66938;52.084;5.228;2023-05-15T09:25:31;41.4;;;37.71;;
77748;SDS011;66938;52.084;5.228;2023-05-15T09:28:47;42.3;;;38.5;;
77748;SDS011;66938;52.084;5.228;2023-05-15T09:30:24;43.5;;;39.5;;
77748;SDS011;66938;52.084;5.228;2023-05-15T09:32:02;45.3;;;41.2;;
77748;SDS011;66938;52.084;5.228;2023-05-15T09:33:40;46.3;;;42.1;;
77748;SDS011;66938;52.084;5.228;2023-05-15T09:37:11;46.0;;;41.8;;
77748;SDS011;66938;52.084;5.228;2023-05-15T09:39:03;46.6;;;42.3;;
77748;SDS011;66938;52.084;5.228;2023-05-15T09:40:39;46.7;;;42.4;;
77748;SDS011;66938;52.084;5.228;2023-05-15T09:42:15;44.2;;;40.21;;
77748;SDS011;66938;52.084;5.228;2023-05-15T09:45:29;44.4;;;40.31;;
77748;SDS011;66938;52.084;5.228;2023-05-15T09:47:06;43.2;;;39.31;;
77748;SDS011;66938;52.084;5.228;2023-05-15T09:48:43;40.1;;;36.4;;
77748;SDS011;66938;52.084;5.228;2023-05-15T09:51:57;39.5;;;35.9;;
77748;SDS011;66938;52.084;5.228;2023-05-15T09:53:33;38.0;;;34.71;;
77748;SDS011;66938;52.084;5.228;2023-05-15T09:55:13;36.21;;;33.0;;
77748;SDS011;66938;52.084;5.228;2023-05-15T09:56:50;36.71;;;33.6;;
77748;SDS011;66938;52.084;5.228;2023-05-15T10:00:02;35.1;;;32.21;;
77748;SDS011;66938;52.084;5.228;2023-05-15T10:01:43;36.9;;;33.8;;
77748;SDS011;66938;52.084;5.228;2023-05-15T10:03:20;36.81;;;33.8;;
77748;SDS011;66938;52.084;5.228;2023-05-15T10:06:34;39.21;;;35.71;;
77748;SDS011;66938;52.084;5.228;2023-05-15T10:08:11;38.81;;;35.5;;
77748;SDS011;66938;52.084;5.228;2023-05-15T10:09:47;39.71;;;36.31;;
77748;SDS011;66938;52.084;5.228;2023-05-15T10:11:23;41.5;;;37.81;;
77748;SDS011;66938;52.084;5.228;2023-05-15T10:14:37;40.6;;;37.1;;
77748;SDS011;66938;52.084;5.228;2023-05-15T10:16:13;37.9;;;34.71;;
77748;SDS011;66938;52.084;5.228;2023-05-15T10:17:50;38.21;;;34.9;;
77748;SDS011;66938;52.084;5.228;2023-05-15T10:21:05;36.9;;;33.8;;
77748;SDS011;66938;52.084;5.228;2023-05-15T10:22:45;36.4;;;33.1;;
77748;SDS011;66938;52.084;5.228;2023-05-15T10:24:22;34.1;;;31.0;;
77748;SDS011;66938;52.084;5.228;2023-05-15T10:26:06;33.6;;;30.7;;
77748;SDS011;66938;52.084;5.228;2023-05-15T10:29:26;32.9;;;30.0;;
77748;SDS011;66938;52.084;5.228;2023-05-15T10:31:04;34.21;;;31.0;;
77748;SDS011;66938;52.084;5.228;2023-05-15T10:32:42;34.81;;;31.6;;
77748;SDS011;66938;52.084;5.228;2023-05-15T10:35:55;34.1;;;30.9;;
77748;SDS011;66938;52.084;5.228;2023-05-15T10:37:33;35.81;;;32.5;;
77748;SDS011;66938;52.084;5.228;2023-05-15T10:39:10;35.4;;;32.1;;
77748;SDS011;66938;52.084;5.228;2023-05-15T10:40:48;35.5;;;32.4;;
77748;SDS011;66938;52.084;5.228;2023-05-15T10:44:04;36.6;;;33.3;;
77748;SDS011;66938;52.084;5.228;2023-05-15T10:45:41;36.81;;;33.5;;
77748;SDS011;66938;52.084;5.228;2023-05-15T10:47:18;39.31;;;35.71;;
77748;SDS011;66938;52.084;5.228;2023-05-15T10:50:33;38.81;;;35.1;;
77748;SDS011;66938;52.084;5.228;2023-05-15T10:52:12;42.8;;;38.81;;
77748;SDS011;66938;52.084;5.228;2023-05-15T10:53:48;42.6;;;38.71;;
77748;SDS011;66938;52.084;5.228;2023-05-15T10:55:25;40.81;;;37.21;;
77748;SDS011;66938;52.084;5.228;2023-05-15T10:58:37;42.1;;;38.21;;
77748;SDS011;66938;52.084;5.228;2023-05-15T11:00:23;42.3;;;38.31;;
77748;SDS011;66938;52.084;5.228;2023-05-15T11:02:20;41.5;;;37.71;;
77748;SDS011;66938;52.084;5.228;2023-05-15T11:04:03;41.3;;;37.6;;
77748;SDS011;66938;52.084;5.228;2023-05-15T11:06:16;40.1;;;36.5;;
77748;SDS011;66938;52.084;5.228;2023-05-15T11:08:35;39.5;;;36.0;;
77748;SDS011;66938;52.084;5.228;2023-05-15T11:10:46;40.21;;;36.5;;
77748;SDS011;66938;52.084;5.228;2023-05-15T11:12:23;39.9;;;36.31;;
77748;SDS011;66938;52.084;5.228;2023-05-15T11:15:50;39.31;;;35.81;;
77748;SDS011;66938;52.084;5.228;2023-05-15T11:17:26;39.6;;;36.1;;
77748;SDS011;66938;52.084;5.228;2023-05-15T11:19:20;38.81;;;35.31;;
77748;SDS011;66938;52.084;5.228;2023-05-15T11:21:12;37.9;;;34.5;;
77748;SDS011;66938;52.084;5.228;2023-05-15T11:22:56;40.1;;;36.5;;
77748;SDS011;66938;52.084;5.228;2023-05-15T11:24:46;39.1;;;35.71;;
77748;SDS011;66938;52.084;5.228;2023-05-15T11:28:12;41.4;;;37.81;;
77748;SDS011;66938;52.084;5.228;2023-05-15T11:30:04;40.5;;;36.9;;
77748;SDS011;66938;52.084;5.228;2023-05-15T11:31:49;40.71;;;37.0;;
77748;SDS011;66938;52.084;5.228;2023-05-15T11:33:28;38.5;;;35.1;;
77748;SDS011;66938;52.084;5.228;2023-05-15T11:35:07;37.4;;;34.31;;
77748;SDS011;66938;52.084;5.228;2023-05-15T11:38:22;40.1;;;36.4;;
77748;SDS011;66938;52.084;5.228;2023-05-15T11:39:59;42.6;;;38.31;;
77748;SDS011;66938;52.084;5.228;2023-05-15T11:41:35;59.4;;;46.4;;
77748;SDS011;66938;52.084;5.228;2023-05-15T11:44:57;41.2;;;37.6;;
77748;SDS011;66938;52.084;5.228;2023-05-15T11:46:34;40.6;;;37.1;;
77748;SDS011;66938;52.084;5.228;2023-05-15T11:48:11;40.0;;;36.31;;
77748;SDS011;66938;52.084;5.228;2023-05-15T11:49:51;40.6;;;36.71;;
77748;SDS011;66938;52.084;5.228;2023-05-15T11:53:04;38.31;;;35.0;;
77748;SDS011;66938;52.084;5.228;2023-05-15T11:54:42;37.9;;;34.71;;
77748;SDS011;66938;52.084;5.228;2023-05-15T11:56:18;36.21;;;33.21;;
77748;SDS011;66938;52.084;5.228;2023-05-15T11:59:32;36.71;;;33.71;;
77748;SDS011;66938;52.084;5.228;2023-05-15T12:01:09;31.2;;;28.7;;
77748;SDS011;66938;52.084;5.228;2023-05-15T12:02:45;29.7;;;27.3;;
77748;SDS011;66938;52.084;5.228;2023-05-15T12:04:22;29.7;;;27.3;;
77748;SDS011;66938;52.084;5.228;2023-05-15T12:07:37;30.3;;;27.7;;
77748;SDS011;66938;52.084;5.228;2023-05-15T12:09:13;27.4;;;25.2;;
77748;SDS011;66938;52.084;5.228;2023-05-15T12:10:50;27.0;;;24.7;;
77748;SDS011;66938;52.084;5.228;2023-05-15T12:14:03;27.9;;;25.6;;
77748;SDS011;66938;52.084;5.228;2023-05-15T12:15:40;27.3;;;25.0;;
77748;SDS011;66938;52.084;5.228;2023-05-15T12:17:18;26.5;;;24.3;;
77748;SDS011;66938;52.084;5.228;2023-05-15T12:20:32;26.1;;;23.9;;
77748;SDS011;66938;52.084;5.228;2023-05-15T12:22:08;26.1;;;24.0;;
77748;SDS011;66938;52.084;5.228;2023-05-15T12:23:49;27.4;;;25.2;;
77748;SDS011;66938;52.084;5.228;2023-05-15T12:25:26;25.9;;;23.7;;
77748;SDS011;66938;52.084;5.228;2023-05-15T12:28:39;23.7;;;21.6;;
77748;SDS011;66938;52.084;5.228;2023-05-15T12:30:15;23.2;;;21.2;;
77748;SDS011;66938;52.084;5.228;2023-05-15T12:31:53;22.6;;;20.7;;
77748;SDS011;66938;52.084;5.228;2023-05-15T12:35:05;21.4;;;19.61;;
77748;SDS011;66938;52.084;5.228;2023-05-15T12:36:42;20.41;;;18.7;;
77748;SDS011;66938;52.084;5.228;2023-05-15T12:38:18;19.61;;;18.0;;
77748;SDS011;66938;52.084;5.228;2023-05-15T12:39:58;19.7;;;18.0;;
77748;SDS011;66938;52.084;5.228;2023-05-15T12:43:13;19.3;;;17.7;;
77748;SDS011;66938;52.084;5.228;2023-05-15T12:44:49;17.91;;;16.4;;
77748;SDS011;66938;52.084;5.228;2023-05-15T12:46:28;19.0;;;17.3;;
77748;SDS011;66938;52.084;5.228;2023-05-15T12:49:41;18.41;;;16.8;;
77748;SDS011;66938;52.084;5.228;2023-05-15T12:51:18;17.61;;;16.11;;
77748;SDS011;66938;52.084;5.228;2023-05-15T12:52:57;15.6;;;14.1;;